Fort Bridger, Wyoming
Current Conditions -  °F | °C
As of 1:35 AM on Saturday 20 Dec 2014 (Local Time) from KFBR Reporting Station
Overcast Overcast  
Wind Chill: -4°   Ceiling: 3400
Heat Index:   Visibility: 10mi
Dew Point: -4°   Wind: 8mph
Humidity: 75%   Direction: 260°W
Pressure: 30.11"   Gusts: NA
Location:  41.32°N, 110.39°W
Report Text: KFBR 200835Z AUTO 26007KT 10SM OVC034 00/M04 A3011 RMK AO2 T00001040
Loading
Personal Weather Stations






























Interactive Weather Map New forecast layout! Learn more

10-Day Weather Forecast

Advertisements
Track Severe Weather on mobile